»·PEaware :: N335AK KOTH-KSAC

N335AK :: KOTH-KSAC

FLIGHT INFORMATION

Flight Status: Arrived
Operator: Privately registered:
United States
More flights under this callsign
Pilot: Gabor H. (24209)
Aircraft: Unknown
(EPIC)
More flights by this aircraft type
Origin: KOTH North Bend Mun
United States
Destination: KSAC Sacramento Executive
United States
More flights between these airports :: More routes between these airports
Route: +OTH7 DEROY V287 OED J1 RBL V23 SAC
File this flight plan on PilotEdge
Remarks:
Altitude:
(Current/Filed)
27,000ft
Speed:
(Current/Filed)
325kts
Departed: 30-Oct-20 04:46 PM
Arrived: 30-Oct-20 05:52 PM
Distance/Time
Traveled:
319nm/1:06
Distance/Time
To Go:
Arrived

Flight Plot

Page will automatically refresh every two minutes.

Flight plan parsing failed; only flown route is shown


Map Options




Map Legend


Flown Route
Filed Route
Departure Airport
Arrival Airport
Navaid (VOR, NDB)
Fix

Horizontal Profiles

Position Reports

Time Latitude Longitude Heading Altitude Ground
Speed
30-Oct-20 16:23 43.417495 -124.247167 152 27ft 0kts
30-Oct-20 16:24 43.417495 -124.247167 152 27ft 0kts
30-Oct-20 16:25 43.417495 -124.247167 152 27ft 0kts
30-Oct-20 16:26 43.417495 -124.247167 152 27ft 0kts
30-Oct-20 16:27 43.417495 -124.247167 152 27ft 0kts
30-Oct-20 16:28 43.417495 -124.247167 152 27ft 0kts
30-Oct-20 16:29 43.417495 -124.247167 152 27ft 0kts
30-Oct-20 16:30 43.417495 -124.247167 152 27ft 0kts
30-Oct-20 16:31 43.417495 -124.247167 152 27ft 0kts
30-Oct-20 16:32 43.417495 -124.247167 152 27ft 0kts
30-Oct-20 16:33 43.417495 -124.247167 152 27ft 0kts
30-Oct-20 16:34 43.417495 -124.247167 152 27ft 0kts
30-Oct-20 16:35 43.417495 -124.247167 152 27ft 0kts
30-Oct-20 16:36 43.417495 -124.247167 152 27ft 0kts
30-Oct-20 16:37 43.417495 -124.247167 152 27ft 0kts
30-Oct-20 16:38 43.417495 -124.247167 152 27ft 0kts
30-Oct-20 16:39 43.417495 -124.247167 152 27ft 0kts
30-Oct-20 16:40 43.417495 -124.247167 152 27ft 0kts
30-Oct-20 16:41 43.415932 -124.244504 144 21ft 18kts
30-Oct-20 16:42 43.411482 -124.240982 146 17ft 18kts
30-Oct-20 16:43 43.408969 -124.238800 104 13ft 0kts
30-Oct-20 16:44 43.408969 -124.238800 104 13ft 0kts
30-Oct-20 16:45 43.410294 -124.238605 331 11ft 43kts
30-Oct-20 16:46 43.429892 -124.280471 240 1764ft 200kts
30-Oct-20 16:47 43.420464 -124.340120 332 5675ft 176kts
30-Oct-20 16:48 43.436970 -124.290678 115 9028ft 231kts
30-Oct-20 16:49 43.414736 -124.201365 85 11665ft 261kts
30-Oct-20 16:50 43.378240 -124.117370 137 14487ft 274kts
30-Oct-20 16:51 43.323139 -124.041997 137 17103ft 287kts
30-Oct-20 16:52 43.265583 -123.963487 136 19478ft 298kts
30-Oct-20 16:53 43.205976 -123.882414 136 21252ft 308kts
30-Oct-20 16:54 43.144232 -123.798681 136 22713ft 316kts
30-Oct-20 16:55 43.081198 -123.713429 136 23858ft 323kts
30-Oct-20 16:56 43.016673 -123.626447 135 24841ft 328kts
30-Oct-20 16:57 42.951339 -123.538666 135 25703ft 331kts
30-Oct-20 16:58 42.885870 -123.450984 135 26425ft 334kts
30-Oct-20 16:59 42.819264 -123.362064 135 26988ft 337kts
30-Oct-20 17:00 42.751656 -123.272095 136 27183ft 344kts
30-Oct-20 17:01 42.682766 -123.180738 136 27151ft 348kts
30-Oct-20 17:02 42.613254 -123.088815 136 27136ft 351kts
30-Oct-20 17:03 42.542765 -122.995910 136 27137ft 356kts
30-Oct-20 17:04 42.466770 -122.911526 165 27147ft 351kts
30-Oct-20 17:05 42.372274 -122.881313 172 27138ft 351kts
30-Oct-20 17:06 42.276610 -122.853216 172 27139ft 352kts
30-Oct-20 17:07 42.181017 -122.825247 172 27139ft 353kts
30-Oct-20 17:08 42.085209 -122.797285 172 27138ft 353kts
30-Oct-20 17:09 41.989171 -122.769353 172 27135ft 353kts
30-Oct-20 17:10 41.893425 -122.741586 172 27130ft 354kts
30-Oct-20 17:11 41.797305 -122.713795 172 27127ft 353kts
30-Oct-20 17:12 41.701608 -122.686210 172 27128ft 353kts
30-Oct-20 17:13 41.605598 -122.658625 172 27129ft 354kts
30-Oct-20 17:14 41.509449 -122.631078 172 27130ft 354kts
30-Oct-20 17:15 41.413150 -122.603576 172 27131ft 354kts
30-Oct-20 17:16 41.316964 -122.576188 172 27131ft 354kts
30-Oct-20 17:17 41.220837 -122.548901 172 27124ft 355kts
30-Oct-20 17:18 41.124409 -122.521611 172 27098ft 356kts
30-Oct-20 17:19 41.027747 -122.494349 171 27068ft 353kts
30-Oct-20 17:20 40.932428 -122.467515 170 27049ft 348kts
30-Oct-20 17:21 40.838921 -122.441284 170 27046ft 345kts
30-Oct-20 17:22 40.745270 -122.415091 170 27047ft 344kts
30-Oct-20 17:23 40.651692 -122.388994 170 27047ft 344kts
30-Oct-20 17:24 40.557981 -122.362930 170 27048ft 344kts
30-Oct-20 17:25 40.464382 -122.336972 171 27044ft 344kts
30-Oct-20 17:26 40.371000 -122.311150 171 27048ft 343kts
30-Oct-20 17:27 40.277788 -122.285448 171 27055ft 343kts
30-Oct-20 17:28 40.184449 -122.259786 171 27062ft 343kts
30-Oct-20 17:29 40.091618 -122.231926 161 27071ft 346kts
30-Oct-20 17:31 40.002086 -122.185464 160 27064ft 347kts
30-Oct-20 17:32 39.912802 -122.138707 160 27070ft 347kts
30-Oct-20 17:33 39.818312 -122.089382 160 25306ft 382kts
30-Oct-20 17:34 39.719074 -122.037708 160 24071ft 375kts
30-Oct-20 17:35 39.624926 -121.988835 160 23717ft 367kts
30-Oct-20 17:36 39.527257 -121.938302 160 21786ft 388kts
30-Oct-20 17:37 39.427912 -121.887059 160 19716ft 379kts
30-Oct-20 17:38 39.334089 -121.838840 161 19069ft 347kts
30-Oct-20 17:39 39.241293 -121.807448 168 17809ft 352kts
30-Oct-20 17:40 39.145714 -121.776475 168 15660ft 356kts
30-Oct-20 17:41 39.052719 -121.746435 168 13561ft 337kts
30-Oct-20 17:42 38.967020 -121.718809 167 11627ft 304kts
30-Oct-20 17:43 38.887245 -121.693097 166 9830ft 291kts
30-Oct-20 17:44 38.815062 -121.654903 133 8039ft 287kts
30-Oct-20 17:45 38.762168 -121.582213 133 6041ft 268kts
30-Oct-20 17:46 38.712777 -121.514849 133 4032ft 250kts
30-Oct-20 17:46 38.674524 -121.464564 148 2987ft 219kts
30-Oct-20 17:48 38.614986 -121.431287 170 1798ft 178kts
30-Oct-20 17:48 38.581037 -121.438565 212 1584ft 129kts
30-Oct-20 17:50 38.543492 -121.470002 211 984ft 117kts
30-Oct-20 17:50 38.523749 -121.485503 208 292ft 93kts
30-Oct-20 17:52 38.513585 -121.495038 273 24ft 0kts
30-Oct-20 17:52 38.513924 -121.496786 304 23ft 20kts
30-Oct-20 17:54 38.514870 -121.498442 226 23ft 0kts
30-Oct-20 17:54 38.514870 -121.498442 226 23ft 0kts
30-Oct-20 17:56 38.514870 -121.498442 226 23ft 0kts
30-Oct-20 17:56 38.514870 -121.498442 226 23ft 0kts
30-Oct-20 17:57 38.514870 -121.498442 226 23ft 0kts
30-Oct-20 17:58 38.514870 -121.498442 226 23ft 0kts
30-Oct-20 17:59 38.514870 -121.498442 226 23ft 0kts
30-Oct-20 18:00 38.514870 -121.498442 226 23ft 0kts
30-Oct-20 18:01 38.514870 -121.498442 226 23ft 0kts

Navigation Log

Ident Type
Flight plan parsing failed, navigation log unavailable